»·PEaware :: AAL1744 KSEA-KLAX

AAL1744 :: KSEA-KLAX

FLIGHT INFORMATION

Flight Status: Arrived
Operator:
American Airlines
More flights by this operator :: More flights under this callsign
Pilot: Karan Sarai (15685)
Aircraft: BOEING 737-800
(B738)
More flights by this aircraft type
Origin: KSEA Seattle-Tacoma Intl
United States
Destination: KLAX Los Angeles Intl
United States
More flights between these airports :: More routes between these airports
Route: +SUMMA9 SUMMA Q9 REBRG AVE SADDE7
File this flight plan on PilotEdge
Remarks:
Altitude:
(Current/Filed)
38,000ft
Speed:
(Current/Filed)
490kts
Departed: 11-Jun-17 08:23 PM
Arrived: 11-Jun-17 10:35 PM
Distance/Time
Traveled:
829nm/2:12
Distance/Time
To Go:
Arrived

Flight Plot

Page will automatically refresh every two minutes.

Flight plan parsing failed; only flown route is shown


Map Options




Map Legend


Flown Route
Filed Route
Departure Airport
Arrival Airport
Navaid (VOR, NDB)
Fix

Horizontal Profiles

Position Reports

Time Latitude Longitude Heading Altitude Ground
Speed
11-Jun-17 19:51 35.239998 -120.634002 132 216ft 0kts
11-Jun-17 19:52 35.239998 -120.634002 132 216ft 0kts
11-Jun-17 19:53 47.438077 -122.304170 43 440ft 0kts
11-Jun-17 19:54 47.438077 -122.304170 43 440ft 0kts
11-Jun-17 19:55 47.438077 -122.304170 43 440ft 0kts
11-Jun-17 19:56 47.438077 -122.304170 43 440ft 0kts
11-Jun-17 19:57 47.438077 -122.304170 43 440ft 0kts
11-Jun-17 19:58 47.438077 -122.304170 43 440ft 0kts
11-Jun-17 19:59 47.438077 -122.304170 43 440ft 0kts
11-Jun-17 20:00 47.438077 -122.304170 43 440ft 0kts
11-Jun-17 20:01 47.438077 -122.304170 43 440ft 0kts
11-Jun-17 20:02 47.438077 -122.304170 43 440ft 0kts
11-Jun-17 20:03 47.438077 -122.304169 43 440ft 0kts
11-Jun-17 20:04 47.438078 -122.304168 43 440ft 0kts
11-Jun-17 20:05 47.438079 -122.304167 43 440ft 0kts
11-Jun-17 20:06 47.438080 -122.304165 43 440ft 0kts
11-Jun-17 20:07 47.438081 -122.304164 43 441ft 0kts
11-Jun-17 20:08 47.438082 -122.304162 43 441ft 0kts
11-Jun-17 20:09 47.438083 -122.304161 43 441ft 0kts
11-Jun-17 20:10 47.438085 -122.304159 43 441ft 0kts
11-Jun-17 20:11 47.438086 -122.304157 43 441ft 0kts
11-Jun-17 20:12 47.438087 -122.304156 43 441ft 0kts
11-Jun-17 20:13 47.438088 -122.304154 43 441ft 0kts
11-Jun-17 20:14 47.438089 -122.304153 43 441ft 0kts
11-Jun-17 20:15 47.437915 -122.304399 43 441ft 2kts
11-Jun-17 20:16 47.437428 -122.305091 43 441ft 0kts
11-Jun-17 20:17 47.437970 -122.305384 333 441ft 10kts
11-Jun-17 20:18 47.439675 -122.306330 349 441ft 13kts
11-Jun-17 20:19 47.445107 -122.306343 0 441ft 18kts
11-Jun-17 20:20 47.449676 -122.306305 0 441ft 18kts
11-Jun-17 20:21 47.454026 -122.306275 0 441ft 16kts
11-Jun-17 20:22 47.460263 -122.306205 0 441ft 21kts
11-Jun-17 20:23 47.462762 -122.306503 304 441ft 5kts
11-Jun-17 20:24 47.462502 -122.307754 183 440ft 0kts
11-Jun-17 20:25 47.435523 -122.308414 182 965ft 188kts
11-Jun-17 20:26 47.368200 -122.314378 186 4221ft 209kts
11-Jun-17 20:27 47.310314 -122.321670 184 6872ft 200kts
11-Jun-17 20:28 47.266542 -122.319251 171 9171ft 178kts
11-Jun-17 20:29 47.208443 -122.293028 156 11201ft 199kts
11-Jun-17 20:30 47.168378 -122.257276 140 12500ft 215kts
11-Jun-17 20:31 47.099314 -122.201334 157 14839ft 255kts
11-Jun-17 20:32 47.044859 -122.175932 159 17159ft 254kts
11-Jun-17 20:33 46.972790 -122.149742 164 19553ft 264kts
11-Jun-17 20:34 46.896925 -122.135998 172 21483ft 290kts
11-Jun-17 20:35 46.816339 -122.137314 178 23754ft 294kts
11-Jun-17 20:36 46.718798 -122.156593 186 26533ft 288kts
11-Jun-17 20:37 46.656181 -122.186632 196 27891ft 304kts
11-Jun-17 20:38 46.578919 -122.242464 203 30072ft 294kts
11-Jun-17 20:39 46.507758 -122.305883 206 31046ft 320kts
11-Jun-17 20:40 46.434574 -122.372002 202 33257ft 294kts
11-Jun-17 20:41 46.357905 -122.358507 150 33686ft 308kts
11-Jun-17 20:42 46.271976 -122.317623 160 34192ft 340kts
11-Jun-17 20:43 46.177669 -122.278329 162 34761ft 364kts
11-Jun-17 20:44 46.078516 -122.237243 161 35645ft 377kts
11-Jun-17 20:45 45.976145 -122.195165 161 36549ft 386kts
11-Jun-17 20:46 45.871617 -122.152498 161 37036ft 400kts
11-Jun-17 20:47 45.761597 -122.107517 161 37027ft 422kts
11-Jun-17 20:48 45.646186 -122.060132 164 37015ft 441kts
11-Jun-17 20:49 45.527409 -122.011933 163 37017ft 440kts
11-Jun-17 20:50 45.409612 -121.964198 162 37018ft 441kts
11-Jun-17 20:51 45.291485 -121.916522 162 37015ft 442kts
11-Jun-17 20:52 45.172670 -121.868783 161 37022ft 445kts
11-Jun-17 20:53 45.053576 -121.821228 161 37008ft 445kts
11-Jun-17 20:54 44.934152 -121.773700 161 37018ft 446kts
11-Jun-17 20:55 44.814401 -121.726319 160 37026ft 448kts
11-Jun-17 20:56 44.692976 -121.678732 160 37018ft 454kts
11-Jun-17 20:57 44.571344 -121.631244 161 36997ft 452kts
11-Jun-17 20:58 44.450113 -121.584175 161 36983ft 454kts
11-Jun-17 20:59 44.327415 -121.536811 161 36984ft 459kts
11-Jun-17 21:00 44.203787 -121.490085 161 36982ft 459kts
11-Jun-17 21:01 44.081458 -121.439420 158 36981ft 460kts
11-Jun-17 21:02 43.958455 -121.389108 161 36981ft 462kts
11-Jun-17 21:03 43.834339 -121.342401 164 36980ft 464kts
11-Jun-17 21:04 43.706151 -121.313842 168 36980ft 465kts
11-Jun-17 21:05 43.595327 -121.290061 167 36980ft 465kts
11-Jun-17 21:06 43.450691 -121.258517 167 36981ft 465kts
11-Jun-17 21:07 43.322769 -121.230503 167 36979ft 464kts
11-Jun-17 21:08 43.195146 -121.202657 168 36979ft 464kts
11-Jun-17 21:09 43.067688 -121.174976 168 36981ft 465kts
11-Jun-17 21:10 42.940314 -121.147385 169 36965ft 463kts
11-Jun-17 21:11 42.812604 -121.119910 169 36961ft 464kts
11-Jun-17 21:12 42.685244 -121.092612 169 36962ft 464kts
11-Jun-17 21:13 42.557740 -121.065386 169 36964ft 464kts
11-Jun-17 21:14 42.429813 -121.038181 169 36962ft 464kts
11-Jun-17 21:15 42.302449 -121.011197 169 36961ft 464kts
11-Jun-17 21:16 42.175013 -120.984312 169 36963ft 464kts
11-Jun-17 21:17 42.047040 -120.957433 169 36964ft 463kts
11-Jun-17 21:18 41.919688 -120.930754 170 36954ft 465kts
11-Jun-17 21:19 41.792272 -120.904200 171 36949ft 464kts
11-Jun-17 21:20 41.664486 -120.877694 171 36949ft 464kts
11-Jun-17 21:21 41.537111 -120.851364 171 36949ft 464kts
11-Jun-17 21:22 41.409711 -120.825130 171 36949ft 464kts
11-Jun-17 21:23 41.282394 -120.798965 171 36949ft 464kts
11-Jun-17 21:24 41.154549 -120.772842 171 36949ft 464kts
11-Jun-17 21:25 41.027160 -120.746952 171 36950ft 463kts
11-Jun-17 21:26 40.900353 -120.717602 170 36969ft 464kts
11-Jun-17 21:27 40.773317 -120.687025 171 36995ft 466kts
11-Jun-17 21:28 40.645040 -120.656342 171 37020ft 469kts
11-Jun-17 21:29 40.516532 -120.625625 171 37035ft 471kts
11-Jun-17 21:30 40.387487 -120.594973 171 37038ft 472kts
11-Jun-17 21:31 40.257924 -120.564340 171 37038ft 472kts
11-Jun-17 21:32 40.128623 -120.533896 171 37038ft 472kts
11-Jun-17 21:33 39.999279 -120.503558 172 37035ft 473kts
11-Jun-17 21:34 39.869749 -120.473291 172 37033ft 474kts
11-Jun-17 21:35 39.739281 -120.442937 172 37031ft 476kts
11-Jun-17 21:36 39.608832 -120.412696 173 37030ft 477kts
11-Jun-17 21:37 39.478069 -120.382501 173 37028ft 478kts
11-Jun-17 21:38 39.347428 -120.352465 172 37024ft 475kts
11-Jun-17 21:39 39.216974 -120.322553 172 37026ft 476kts
11-Jun-17 21:40 39.086962 -120.292868 172 37024ft 474kts
11-Jun-17 21:41 38.957132 -120.263334 172 37016ft 473kts
11-Jun-17 21:42 38.827373 -120.233927 173 37022ft 474kts
11-Jun-17 21:43 38.697468 -120.204596 173 37008ft 473kts
11-Jun-17 21:44 38.568080 -120.175489 173 37005ft 473kts
11-Jun-17 21:45 38.438526 -120.146453 173 37007ft 473kts
11-Jun-17 21:46 38.308556 -120.117426 173 37012ft 473kts
11-Jun-17 21:47 38.179027 -120.088605 173 37014ft 473kts
11-Jun-17 21:48 38.049073 -120.059757 175 37023ft 476kts
11-Jun-17 21:49 37.917935 -120.030794 175 37029ft 481kts
11-Jun-17 21:50 37.785344 -120.001631 176 37039ft 485kts
11-Jun-17 21:51 37.654557 -119.972943 176 37002ft 475kts
11-Jun-17 21:52 37.524726 -119.944582 177 36988ft 472kts
11-Jun-17 21:53 37.394827 -119.916297 177 36997ft 475kts
11-Jun-17 21:54 37.263860 -119.887883 177 37009ft 478kts
11-Jun-17 21:55 37.132779 -119.859539 177 37014ft 479kts
11-Jun-17 21:56 37.001260 -119.831200 177 37017ft 480kts
11-Jun-17 21:57 36.869426 -119.802895 177 37020ft 481kts
11-Jun-17 21:58 36.737147 -119.774592 177 37022ft 481kts
11-Jun-17 21:59 36.605998 -119.746625 177 37024ft 477kts
11-Jun-17 22:00 36.476328 -119.719062 178 37036ft 467kts
11-Jun-17 22:01 36.347693 -119.691826 178 37037ft 468kts
11-Jun-17 22:02 36.219287 -119.664667 178 37036ft 469kts
11-Jun-17 22:03 36.091081 -119.637715 178 37037ft 468kts
11-Jun-17 22:04 35.967624 -119.641472 215 37033ft 426kts
11-Jun-17 22:05 35.875559 -119.730527 225 37030ft 418kts
11-Jun-17 22:06 35.789104 -119.824649 225 37028ft 413kts
11-Jun-17 22:07 35.702574 -119.917061 219 36305ft 410kts
11-Jun-17 22:08 35.584921 -119.917971 161 35359ft 487kts
11-Jun-17 22:09 35.470451 -119.825715 154 33144ft 500kts
11-Jun-17 22:10 35.352413 -119.724286 153 29540ft 513kts
11-Jun-17 22:11 35.232670 -119.621603 152 25607ft 520kts
11-Jun-17 22:12 35.114418 -119.520749 152 24207ft 511kts
11-Jun-17 22:13 34.998895 -119.422695 150 23992ft 510kts
11-Jun-17 22:14 34.883612 -119.324619 145 23992ft 485kts
11-Jun-17 22:15 34.778298 -119.234921 151 23998ft 442kts
11-Jun-17 22:16 34.677085 -119.149800 152 23413ft 439kts
11-Jun-17 22:17 34.576952 -119.065569 150 21779ft 443kts
11-Jun-17 22:18 34.477574 -118.982212 151 19918ft 428kts
11-Jun-17 22:19 34.379304 -118.900354 151 17863ft 432kts
11-Jun-17 22:20 34.269087 -118.848005 171 15226ft 424kts
11-Jun-17 22:21 34.159037 -118.808627 168 12487ft 394kts
11-Jun-17 22:22 34.062191 -118.771089 155 11590ft 360kts
11-Jun-17 22:23 34.018946 -118.687348 94 9721ft 352kts
11-Jun-17 22:24 34.014552 -118.572018 90 7503ft 339kts
11-Jun-17 22:25 34.010721 -118.469390 90 6973ft 269kts
11-Jun-17 22:26 34.016015 -118.382727 82 6996ft 259kts
11-Jun-17 22:27 34.022024 -118.295974 82 6942ft 261kts
11-Jun-17 22:28 34.028366 -118.209033 82 5288ft 253kts
11-Jun-17 22:29 34.034560 -118.130079 82 3664ft 219kts
11-Jun-17 22:30 34.003943 -118.098087 222 3526ft 157kts
11-Jun-17 22:31 33.974077 -118.135643 232 3596ft 151kts
11-Jun-17 22:32 33.957882 -118.179201 266 3427ft 143kts
11-Jun-17 22:33 33.953481 -118.225043 263 2679ft 137kts
11-Jun-17 22:34 33.948759 -118.271443 260 1934ft 143kts
11-Jun-17 22:35 33.944010 -118.317823 260 1169ft 129kts
11-Jun-17 22:36 33.939589 -118.361007 261 507ft 134kts
11-Jun-17 22:37 33.935933 -118.397437 285 134ft 26kts
11-Jun-17 22:38 33.937962 -118.404464 336 134ft 20kts
11-Jun-17 22:39 33.941408 -118.405635 62 134ft 7kts
11-Jun-17 22:40 33.941504 -118.405132 82 134ft 0kts
11-Jun-17 22:41 33.941504 -118.405132 82 134ft 0kts

Navigation Log

Ident Type
Flight plan parsing failed, navigation log unavailable